sensor_id;sensor_type;location;lat;lon;timestamp;P1;durP1;ratioP1;P2;durP2;ratioP2
63836;SDS011;49991;50.518;30.486;2022-09-12T00:02:28;7.32;;;6.63;;
63836;SDS011;49991;50.518;30.486;2022-09-12T00:05:13;7.32;;;6.68;;
63836;SDS011;49991;50.518;30.486;2022-09-12T00:08:00;7.18;;;6.45;;
63836;SDS011;49991;50.518;30.486;2022-09-12T00:10:45;6.88;;;6.28;;
63836;SDS011;49991;50.518;30.486;2022-09-12T00:13:31;7.53;;;6.75;;
63836;SDS011;49991;50.518;30.486;2022-09-12T00:16:17;6.80;;;6.20;;
63836;SDS011;49991;50.518;30.486;2022-09-12T00:19:04;7.32;;;6.70;;
63836;SDS011;49991;50.518;30.486;2022-09-12T00:21:49;7.43;;;6.72;;
63836;SDS011;49991;50.518;30.486;2022-09-12T00:24:36;6.57;;;5.97;;
63836;SDS011;49991;50.518;30.486;2022-09-12T00:27:23;6.57;;;5.97;;
63836;SDS011;49991;50.518;30.486;2022-09-12T00:30:09;7.00;;;6.40;;
63836;SDS011;49991;50.518;30.486;2022-09-12T00:32:55;7.25;;;6.63;;
63836;SDS011;49991;50.518;30.486;2022-09-12T00:35:41;6.75;;;6.13;;
63836;SDS011;49991;50.518;30.486;2022-09-12T00:38:27;7.28;;;6.30;;
63836;SDS011;49991;50.518;30.486;2022-09-12T00:41:14;6.78;;;6.00;;
63836;SDS011;49991;50.518;30.486;2022-09-12T00:44:38;7.65;;;6.70;;
63836;SDS011;49991;50.518;30.486;2022-09-12T00:47:30;6.78;;;6.00;;
63836;SDS011;49991;50.518;30.486;2022-09-12T00:50:18;6.68;;;6.07;;
63836;SDS011;49991;50.518;30.486;2022-09-12T00:53:04;7.10;;;6.50;;
63836;SDS011;49991;50.518;30.486;2022-09-12T00:55:52;6.45;;;5.90;;
63836;SDS011;49991;50.518;30.486;2022-09-12T00:58:42;6.38;;;5.88;;
63836;SDS011;49991;50.518;30.486;2022-09-12T01:01:31;6.93;;;6.25;;
63836;SDS011;49991;50.518;30.486;2022-09-12T01:04:17;6.35;;;5.78;;
63836;SDS011;49991;50.518;30.486;2022-09-12T01:07:04;6.22;;;5.72;;
63836;SDS011;49991;50.518;30.486;2022-09-12T01:09:51;7.43;;;5.82;;
63836;SDS011;49991;50.518;30.486;2022-09-12T01:12:37;6.10;;;5.47;;
63836;SDS011;49991;50.518;30.486;2022-09-12T01:15:26;5.57;;;5.18;;
63836;SDS011;49991;50.518;30.486;2022-09-12T01:18:14;5.85;;;5.28;;
63836;SDS011;49991;50.518;30.486;2022-09-12T01:21:10;5.40;;;5.00;;
63836;SDS011;49991;50.518;30.486;2022-09-12T01:27:43;5.40;;;4.90;;
63836;SDS011;49991;50.518;30.486;2022-09-12T01:30:45;5.30;;;4.80;;
63836;SDS011;49991;50.518;30.486;2022-09-12T01:33:40;5.45;;;4.60;;
63836;SDS011;49991;50.518;30.486;2022-09-12T01:36:38;4.93;;;4.53;;
63836;SDS011;49991;50.518;30.486;2022-09-12T01:39:29;5.28;;;4.88;;
63836;SDS011;49991;50.518;30.486;2022-09-12T01:42:25;4.55;;;4.15;;
63836;SDS011;49991;50.518;30.486;2022-09-12T01:45:17;5.13;;;4.72;;
63836;SDS011;49991;50.518;30.486;2022-09-12T01:48:12;5.45;;;4.78;;
63836;SDS011;49991;50.518;30.486;2022-09-12T01:51:03;4.85;;;4.15;;
63836;SDS011;49991;50.518;30.486;2022-09-12T01:53:56;4.50;;;4.20;;
63836;SDS011;49991;50.518;30.486;2022-09-12T01:56:48;5.18;;;4.68;;
63836;SDS011;49991;50.518;30.486;2022-09-12T01:59:38;4.55;;;4.10;;
63836;SDS011;49991;50.518;30.486;2022-09-12T02:02:30;4.90;;;4.40;;
63836;SDS011;49991;50.518;30.486;2022-09-12T02:05:21;6.60;;;4.03;;
63836;SDS011;49991;50.518;30.486;2022-09-12T02:08:12;5.57;;;4.45;;
63836;SDS011;49991;50.518;30.486;2022-09-12T02:11:01;4.20;;;3.85;;
63836;SDS011;49991;50.518;30.486;2022-09-12T02:13:52;4.18;;;3.88;;
63836;SDS011;49991;50.518;30.486;2022-09-12T02:16:41;4.07;;;3.78;;
63836;SDS011;49991;50.518;30.486;2022-09-12T02:19:31;4.00;;;3.70;;
63836;SDS011;49991;50.518;30.486;2022-09-12T02:22:25;3.90;;;3.60;;
63836;SDS011;49991;50.518;30.486;2022-09-12T02:25:14;4.82;;;3.83;;
63836;SDS011;49991;50.518;30.486;2022-09-12T02:28:03;3.75;;;3.45;;
63836;SDS011;49991;50.518;30.486;2022-09-12T02:30:55;3.50;;;3.25;;
63836;SDS011;49991;50.518;30.486;2022-09-12T02:33:47;3.70;;;3.40;;
63836;SDS011;49991;50.518;30.486;2022-09-12T02:36:38;3.72;;;3.42;;
63836;SDS011;49991;50.518;30.486;2022-09-12T02:39:31;7.20;;;3.30;;
63836;SDS011;49991;50.518;30.486;2022-09-12T02:42:17;3.35;;;3.15;;
63836;SDS011;49991;50.518;30.486;2022-09-12T02:45:03;4.33;;;3.20;;
63836;SDS011;49991;50.518;30.486;2022-09-12T02:47:50;3.38;;;3.10;;
63836;SDS011;49991;50.518;30.486;2022-09-12T02:50:40;3.17;;;2.97;;
63836;SDS011;49991;50.518;30.486;2022-09-12T02:53:27;2.67;;;2.50;;
63836;SDS011;49991;50.518;30.486;2022-09-12T02:56:16;2.70;;;2.60;;
63836;SDS011;49991;50.518;30.486;2022-09-12T02:59:06;3.30;;;3.00;;
63836;SDS011;49991;50.518;30.486;2022-09-12T03:02:00;3.28;;;2.95;;
63836;SDS011;49991;50.518;30.486;2022-09-12T03:05:00;2.90;;;2.70;;
63836;SDS011;49991;50.518;30.486;2022-09-12T03:08:21;2.80;;;2.60;;
63836;SDS011;49991;50.518;30.486;2022-09-12T03:11:26;2.60;;;2.50;;
63836;SDS011;49991;50.518;30.486;2022-09-12T03:14:26;2.67;;;2.47;;
63836;SDS011;49991;50.518;30.486;2022-09-12T03:17:26;2.58;;;2.38;;
63836;SDS011;49991;50.518;30.486;2022-09-12T03:20:21;2.60;;;2.40;;
63836;SDS011;49991;50.518;30.486;2022-09-12T03:23:19;2.65;;;2.50;;
63836;SDS011;49991;50.518;30.486;2022-09-12T03:26:10;2.30;;;2.20;;
63836;SDS011;49991;50.518;30.486;2022-09-12T03:29:01;2.42;;;2.30;;
63836;SDS011;49991;50.518;30.486;2022-09-12T03:31:50;2.50;;;2.40;;
63836;SDS011;49991;50.518;30.486;2022-09-12T03:34:37;3.35;;;2.50;;
63836;SDS011;49991;50.518;30.486;2022-09-12T03:37:23;2.30;;;2.20;;
63836;SDS011;49991;50.518;30.486;2022-09-12T03:40:09;2.40;;;2.20;;
63836;SDS011;49991;50.518;30.486;2022-09-12T03:42:55;2.72;;;1.90;;
63836;SDS011;49991;50.518;30.486;2022-09-12T03:45:41;1.77;;;1.67;;
63836;SDS011;49991;50.518;30.486;2022-09-12T03:48:27;1.90;;;1.80;;
63836;SDS011;49991;50.518;30.486;2022-09-12T03:51:14;1.40;;;1.30;;
63836;SDS011;49991;50.518;30.486;2022-09-12T03:53:59;1.20;;;1.20;;
63836;SDS011;49991;50.518;30.486;2022-09-12T03:56:45;1.05;;;0.93;;
63836;SDS011;49991;50.518;30.486;2022-09-12T03:59:30;2.83;;;1.07;;
63836;SDS011;49991;50.518;30.486;2022-09-12T04:02:17;1.23;;;1.13;;
63836;SDS011;49991;50.518;30.486;2022-09-12T04:05:02;0.73;;;0.73;;
63836;SDS011;49991;50.518;30.486;2022-09-12T04:07:48;0.93;;;0.63;;
63836;SDS011;49991;50.518;30.486;2022-09-12T04:10:33;1.57;;;0.83;;
63836;SDS011;49991;50.518;30.486;2022-09-12T04:13:19;0.70;;;0.70;;
63836;SDS011;49991;50.518;30.486;2022-09-12T04:16:04;0.85;;;0.60;;
63836;SDS011;49991;50.518;30.486;2022-09-12T04:18:52;0.60;;;0.52;;
63836;SDS011;49991;50.518;30.486;2022-09-12T04:21:38;1.20;;;0.60;;
63836;SDS011;49991;50.518;30.486;2022-09-12T04:24:23;0.70;;;0.70;;
63836;SDS011;49991;50.518;30.486;2022-09-12T04:27:09;3.42;;;0.80;;
63836;SDS011;49991;50.518;30.486;2022-09-12T04:29:55;1.63;;;0.90;;
63836;SDS011;49991;50.518;30.486;2022-09-12T04:32:40;0.68;;;0.68;;
63836;SDS011;49991;50.518;30.486;2022-09-12T04:35:27;2.00;;;0.60;;
63836;SDS011;49991;50.518;30.486;2022-09-12T04:38:13;0.70;;;0.70;;
63836;SDS011;49991;50.518;30.486;2022-09-12T04:40:58;0.75;;;0.75;;
63836;SDS011;49991;50.518;30.486;2022-09-12T04:43:44;1.50;;;0.80;;
63836;SDS011;49991;50.518;30.486;2022-09-12T04:46:31;0.63;;;0.60;;
63836;SDS011;49991;50.518;30.486;2022-09-12T04:49:18;0.68;;;0.68;;
63836;SDS011;49991;50.518;30.486;2022-09-12T04:52:04;0.65;;;0.60;;
63836;SDS011;49991;50.518;30.486;2022-09-12T04:54:50;2.50;;;0.60;;
63836;SDS011;49991;50.518;30.486;2022-09-12T04:57:36;0.60;;;0.60;;
63836;SDS011;49991;50.518;30.486;2022-09-12T05:00:21;3.60;;;0.65;;
63836;SDS011;49991;50.518;30.486;2022-09-12T05:03:07;0.60;;;0.60;;
63836;SDS011;49991;50.518;30.486;2022-09-12T05:05:52;1.38;;;0.70;;
63836;SDS011;49991;50.518;30.486;2022-09-12T05:08:39;0.63;;;0.63;;
63836;SDS011;49991;50.518;30.486;2022-09-12T05:11:25;1.30;;;0.98;;
63836;SDS011;49991;50.518;30.486;2022-09-12T05:14:12;2.60;;;0.90;;
63836;SDS011;49991;50.518;30.486;2022-09-12T05:16:58;1.03;;;1.00;;
63836;SDS011;49991;50.518;30.486;2022-09-12T05:19:44;1.35;;;0.80;;
63836;SDS011;49991;50.518;30.486;2022-09-12T05:22:29;0.70;;;0.70;;
63836;SDS011;49991;50.518;30.486;2022-09-12T05:25:16;2.42;;;0.90;;
63836;SDS011;49991;50.518;30.486;2022-09-12T05:28:01;1.05;;;0.60;;
63836;SDS011;49991;50.518;30.486;2022-09-12T05:30:47;1.58;;;0.90;;
63836;SDS011;49991;50.518;30.486;2022-09-12T05:33:32;1.70;;;0.82;;
63836;SDS011;49991;50.518;30.486;2022-09-12T05:36:20;0.70;;;0.70;;
63836;SDS011;49991;50.518;30.486;2022-09-12T05:39:07;2.30;;;0.90;;
63836;SDS011;49991;50.518;30.486;2022-09-12T05:41:54;1.05;;;1.02;;
63836;SDS011;49991;50.518;30.486;2022-09-12T05:44:39;0.88;;;0.80;;
63836;SDS011;49991;50.518;30.486;2022-09-12T05:47:24;0.70;;;0.70;;
63836;SDS011;49991;50.518;30.486;2022-09-12T05:50:10;1.50;;;0.90;;
63836;SDS011;49991;50.518;30.486;2022-09-12T05:52:55;0.87;;;0.87;;
63836;SDS011;49991;50.518;30.486;2022-09-12T05:55:40;1.48;;;0.70;;
63836;SDS011;49991;50.518;30.486;2022-09-12T05:58:27;1.75;;;1.00;;
63836;SDS011;49991;50.518;30.486;2022-09-12T06:01:13;1.52;;;0.95;;
63836;SDS011;49991;50.518;30.486;2022-09-12T06:04:02;3.55;;;0.93;;
63836;SDS011;49991;50.518;30.486;2022-09-12T06:06:49;1.90;;;0.90;;
63836;SDS011;49991;50.518;30.486;2022-09-12T06:09:34;1.13;;;1.02;;
63836;SDS011;49991;50.518;30.486;2022-09-12T06:12:20;2.30;;;0.90;;
63836;SDS011;49991;50.518;30.486;2022-09-12T06:15:07;0.70;;;0.70;;
63836;SDS011;49991;50.518;30.486;2022-09-12T06:17:53;3.25;;;0.77;;
63836;SDS011;49991;50.518;30.486;2022-09-12T06:20:38;0.95;;;0.77;;
63836;SDS011;49991;50.518;30.486;2022-09-12T06:23:23;1.00;;;0.93;;
63836;SDS011;49991;50.518;30.486;2022-09-12T06:26:09;0.70;;;0.70;;
63836;SDS011;49991;50.518;30.486;2022-09-12T06:28:56;1.35;;;1.08;;
63836;SDS011;49991;50.518;30.486;2022-09-12T06:31:44;1.48;;;0.77;;
63836;SDS011;49991;50.518;30.486;2022-09-12T06:34:30;0.77;;;0.77;;
63836;SDS011;49991;50.518;30.486;2022-09-12T06:37:16;0.73;;;0.73;;
63836;SDS011;49991;50.518;30.486;2022-09-12T06:40:02;1.20;;;1.10;;
63836;SDS011;49991;50.518;30.486;2022-09-12T06:42:48;1.17;;;0.98;;
63836;SDS011;49991;50.518;30.486;2022-09-12T06:45:48;0.90;;;0.90;;
63836;SDS011;49991;50.518;30.486;2022-09-12T06:48:35;0.93;;;0.90;;
63836;SDS011;49991;50.518;30.486;2022-09-12T06:51:21;1.55;;;0.98;;
63836;SDS011;49991;50.518;30.486;2022-09-12T06:54:06;0.95;;;0.95;;
63836;SDS011;49991;50.518;30.486;2022-09-12T06:56:51;1.35;;;1.02;;
63836;SDS011;49991;50.518;30.486;2022-09-12T06:59:37;1.23;;;0.98;;
63836;SDS011;49991;50.518;30.486;2022-09-12T07:02:22;0.87;;;0.87;;
63836;SDS011;49991;50.518;30.486;2022-09-12T07:05:09;0.90;;;0.80;;
63836;SDS011;49991;50.518;30.486;2022-09-12T07:07:55;1.60;;;0.93;;
63836;SDS011;49991;50.518;30.486;2022-09-12T07:10:41;4.15;;;1.50;;
63836;SDS011;49991;50.518;30.486;2022-09-12T07:13:26;1.50;;;1.40;;
63836;SDS011;49991;50.518;30.486;2022-09-12T07:16:12;1.83;;;1.33;;
63836;SDS011;49991;50.518;30.486;2022-09-12T07:18:58;3.70;;;1.73;;
63836;SDS011;49991;50.518;30.486;2022-09-12T07:21:46;1.00;;;1.00;;
63836;SDS011;49991;50.518;30.486;2022-09-12T07:24:31;1.35;;;1.30;;
63836;SDS011;49991;50.518;30.486;2022-09-12T07:27:17;1.85;;;1.15;;
63836;SDS011;49991;50.518;30.486;2022-09-12T07:30:03;2.45;;;1.20;;
63836;SDS011;49991;50.518;30.486;2022-09-12T07:32:50;1.23;;;1.20;;
63836;SDS011;49991;50.518;30.486;2022-09-12T07:35:36;2.20;;;1.42;;
63836;SDS011;49991;50.518;30.486;2022-09-12T07:38:23;1.27;;;1.17;;
63836;SDS011;49991;50.518;30.486;2022-09-12T07:41:11;1.95;;;1.10;;
63836;SDS011;49991;50.518;30.486;2022-09-12T07:43:58;1.33;;;1.23;;
63836;SDS011;49991;50.518;30.486;2022-09-12T07:46:45;0.95;;;0.80;;
63836;SDS011;49991;50.518;30.486;2022-09-12T07:49:31;1.73;;;1.13;;
63836;SDS011;49991;50.518;30.486;2022-09-12T07:52:16;1.20;;;1.10;;
63836;SDS011;49991;50.518;30.486;2022-09-12T07:55:03;1.23;;;1.10;;
63836;SDS011;49991;50.518;30.486;2022-09-12T07:57:50;1.20;;;1.10;;
63836;SDS011;49991;50.518;30.486;2022-09-12T08:00:36;2.28;;;1.17;;
63836;SDS011;49991;50.518;30.486;2022-09-12T08:03:21;1.23;;;1.17;;
63836;SDS011;49991;50.518;30.486;2022-09-12T08:06:07;2.55;;;1.20;;
63836;SDS011;49991;50.518;30.486;2022-09-12T08:08:56;1.80;;;1.40;;
63836;SDS011;49991;50.518;30.486;2022-09-12T08:11:44;1.85;;;1.75;;
63836;SDS011;49991;50.518;30.486;2022-09-12T08:14:29;2.10;;;1.50;;
63836;SDS011;49991;50.518;30.486;2022-09-12T08:17:14;3.55;;;1.30;;
63836;SDS011;49991;50.518;30.486;2022-09-12T08:20:00;1.38;;;1.27;;
63836;SDS011;49991;50.518;30.486;2022-09-12T08:22:45;2.08;;;1.40;;
63836;SDS011;49991;50.518;30.486;2022-09-12T08:25:31;2.22;;;1.30;;
63836;SDS011;49991;50.518;30.486;2022-09-12T08:28:18;1.25;;;1.17;;
63836;SDS011;49991;50.518;30.486;2022-09-12T08:31:04;1.40;;;1.30;;
63836;SDS011;49991;50.518;30.486;2022-09-12T08:33:51;1.90;;;1.20;;
63836;SDS011;49991;50.518;30.486;2022-09-12T08:36:39;4.07;;;1.80;;
63836;SDS011;49991;50.518;30.486;2022-09-12T08:39:24;1.77;;;1.05;;
63836;SDS011;49991;50.518;30.486;2022-09-12T08:42:09;4.33;;;1.53;;
63836;SDS011;49991;50.518;30.486;2022-09-12T08:45:09;1.65;;;1.55;;
63836;SDS011;49991;50.518;30.486;2022-09-12T08:48:02;1.92;;;1.42;;
63836;SDS011;49991;50.518;30.486;2022-09-12T08:50:49;1.58;;;1.48;;
63836;SDS011;49991;50.518;30.486;2022-09-12T08:53:35;1.50;;;1.40;;
63836;SDS011;49991;50.518;30.486;2022-09-12T08:56:20;1.52;;;1.30;;
63836;SDS011;49991;50.518;30.486;2022-09-12T09:01:54;1.20;;;1.20;;
63836;SDS011;49991;50.518;30.486;2022-09-12T09:04:45;2.65;;;1.42;;
63836;SDS011;49991;50.518;30.486;2022-09-12T09:07:47;2.72;;;1.05;;
63836;SDS011;49991;50.518;30.486;2022-09-12T09:10:48;1.52;;;1.17;;
63836;SDS011;49991;50.518;30.486;2022-09-12T09:13:41;1.90;;;1.30;;
63836;SDS011;49991;50.518;30.486;2022-09-12T09:16:57;1.52;;;1.10;;
63836;SDS011;49991;50.518;30.486;2022-09-12T09:19:45;1.40;;;1.30;;
63836;SDS011;49991;50.518;30.486;2022-09-12T09:22:36;1.27;;;1.27;;
63836;SDS011;49991;50.518;30.486;2022-09-12T09:25:29;1.73;;;1.55;;
63836;SDS011;49991;50.518;30.486;2022-09-12T09:28:25;1.60;;;1.50;;
63836;SDS011;49991;50.518;30.486;2022-09-12T09:31:18;1.42;;;1.40;;
63836;SDS011;49991;50.518;30.486;2022-09-12T09:34:11;3.17;;;1.38;;
63836;SDS011;49991;50.518;30.486;2022-09-12T09:37:01;1.67;;;1.58;;
63836;SDS011;49991;50.518;30.486;2022-09-12T09:39:55;2.78;;;1.40;;
63836;SDS011;49991;50.518;30.486;2022-09-12T09:42:52;2.70;;;1.70;;
63836;SDS011;49991;50.518;30.486;2022-09-12T09:45:44;1.60;;;1.50;;
63836;SDS011;49991;50.518;30.486;2022-09-12T09:48:30;3.95;;;1.40;;
63836;SDS011;49991;50.518;30.486;2022-09-12T09:51:22;1.50;;;1.40;;
63836;SDS011;49991;50.518;30.486;2022-09-12T09:54:12;2.38;;;1.60;;
63836;SDS011;49991;50.518;30.486;2022-09-12T09:57:03;1.63;;;1.52;;
63836;SDS011;49991;50.518;30.486;2022-09-12T10:00:19;1.70;;;1.60;;
63836;SDS011;49991;50.518;30.486;2022-09-12T10:03:27;1.55;;;1.45;;
63836;SDS011;49991;50.518;30.486;2022-09-12T10:06:28;1.70;;;1.60;;
63836;SDS011;49991;50.518;30.486;2022-09-12T10:09:18;1.60;;;1.50;;
63836;SDS011;49991;50.518;30.486;2022-09-12T10:12:18;2.00;;;1.48;;
63836;SDS011;49991;50.518;30.486;2022-09-12T10:15:15;2.83;;;1.52;;
63836;SDS011;49991;50.518;30.486;2022-09-12T10:18:03;1.90;;;1.35;;
63836;SDS011;49991;50.518;30.486;2022-09-12T10:20:48;1.90;;;1.20;;
63836;SDS011;49991;50.518;30.486;2022-09-12T10:23:35;1.35;;;1.33;;
63836;SDS011;49991;50.518;30.486;2022-09-12T10:26:24;2.08;;;1.48;;
63836;SDS011;49991;50.518;30.486;2022-09-12T10:29:12;1.38;;;1.38;;
63836;SDS011;49991;50.518;30.486;2022-09-12T10:32:01;2.05;;;1.60;;
63836;SDS011;49991;50.518;30.486;2022-09-12T10:34:51;2.45;;;1.58;;
63836;SDS011;49991;50.518;30.486;2022-09-12T10:37:38;2.30;;;1.70;;
63836;SDS011;49991;50.518;30.486;2022-09-12T10:40:26;1.60;;;1.40;;
63836;SDS011;49991;50.518;30.486;2022-09-12T10:43:17;1.70;;;1.60;;
63836;SDS011;49991;50.518;30.486;2022-09-12T10:46:19;1.52;;;1.42;;
63836;SDS011;49991;50.518;30.486;2022-09-12T10:49:19;1.90;;;1.70;;
63836;SDS011;49991;50.518;30.486;2022-09-12T10:52:15;1.58;;;1.48;;
63836;SDS011;49991;50.518;30.486;2022-09-12T10:55:06;1.47;;;1.37;;
63836;SDS011;49991;50.518;30.486;2022-09-12T10:58:19;1.77;;;1.40;;
63836;SDS011;49991;50.518;30.486;2022-09-12T11:01:17;1.30;;;1.30;;
63836;SDS011;49991;50.518;30.486;2022-09-12T11:04:19;1.60;;;1.50;;
63836;SDS011;49991;50.518;30.486;2022-09-12T11:07:17;1.52;;;1.45;;
63836;SDS011;49991;50.518;30.486;2022-09-12T11:10:16;1.63;;;1.50;;
63836;SDS011;49991;50.518;30.486;2022-09-12T11:13:23;1.55;;;1.45;;
63836;SDS011;49991;50.518;30.486;2022-09-12T11:16:26;2.05;;;1.30;;
63836;SDS011;49991;50.518;30.486;2022-09-12T11:19:27;1.40;;;1.30;;
63836;SDS011;49991;50.518;30.486;2022-09-12T11:22:28;1.55;;;1.38;;
63836;SDS011;49991;50.518;30.486;2022-09-12T11:25:30;1.65;;;1.50;;
63836;SDS011;49991;50.518;30.486;2022-09-12T11:28:27;1.50;;;1.40;;
63836;SDS011;49991;50.518;30.486;2022-09-12T11:31:22;1.60;;;1.50;;
63836;SDS011;49991;50.518;30.486;2022-09-12T11:34:25;1.30;;;1.20;;
63836;SDS011;49991;50.518;30.486;2022-09-12T11:37:22;1.50;;;1.40;;
63836;SDS011;49991;50.518;30.486;2022-09-12T11:40:26;1.60;;;1.50;;
63836;SDS011;49991;50.518;30.486;2022-09-12T11:43:19;1.70;;;1.38;;
63836;SDS011;49991;50.518;30.486;2022-09-12T11:46:13;1.65;;;1.52;;
63836;SDS011;49991;50.518;30.486;2022-09-12T11:49:04;1.23;;;1.13;;
63836;SDS011;49991;50.518;30.486;2022-09-12T11:51:59;1.70;;;1.60;;
63836;SDS011;49991;50.518;30.486;2022-09-12T11:54:52;1.60;;;1.30;;
63836;SDS011;49991;50.518;30.486;2022-09-12T11:57:46;1.25;;;1.25;;
63836;SDS011;49991;50.518;30.486;2022-09-12T12:00:37;1.45;;;1.35;;
63836;SDS011;49991;50.518;30.486;2022-09-12T12:03:31;4.45;;;1.52;;
63836;SDS011;49991;50.518;30.486;2022-09-12T12:06:22;1.50;;;1.30;;
63836;SDS011;49991;50.518;30.486;2022-09-12T12:09:11;1.40;;;1.30;;
63836;SDS011;49991;50.518;30.486;2022-09-12T12:11:58;1.40;;;1.35;;
63836;SDS011;49991;50.518;30.486;2022-09-12T12:14:47;1.60;;;1.50;;
63836;SDS011;49991;50.518;30.486;2022-09-12T12:17:35;1.60;;;1.50;;
63836;SDS011;49991;50.518;30.486;2022-09-12T12:20:21;1.60;;;1.50;;
63836;SDS011;49991;50.518;30.486;2022-09-12T12:23:19;1.73;;;1.63;;
63836;SDS011;49991;50.518;30.486;2022-09-12T12:26:08;1.65;;;1.55;;
63836;SDS011;49991;50.518;30.486;2022-09-12T12:29:35;1.70;;;1.60;;
63836;SDS011;49991;50.518;30.486;2022-09-12T12:32:25;1.70;;;1.58;;
63836;SDS011;49991;50.518;30.486;2022-09-12T12:38:27;3.47;;;1.48;;
63836;SDS011;49991;50.518;30.486;2022-09-12T12:44:48;1.60;;;1.50;;
63836;SDS011;49991;50.518;30.486;2022-09-12T12:47:38;1.90;;;1.67;;
63836;SDS011;49991;50.518;30.486;2022-09-12T12:50:27;5.65;;;2.00;;
63836;SDS011;49991;50.518;30.486;2022-09-12T12:53:17;6.45;;;2.47;;
63836;SDS011;49991;50.518;30.486;2022-09-12T12:56:19;15.30;;;2.97;;
63836;SDS011;49991;50.518;30.486;2022-09-12T12:59:16;18.98;;;3.72;;
63836;SDS011;49991;50.518;30.486;2022-09-12T13:02:05;14.07;;;3.15;;
63836;SDS011;49991;50.518;30.486;2022-09-12T13:04:50;21.42;;;3.33;;
63836;SDS011;49991;50.518;30.486;2022-09-12T13:07:37;9.30;;;3.05;;
63836;SDS011;49991;50.518;30.486;2022-09-12T13:10:25;11.63;;;3.03;;
63836;SDS011;49991;50.518;30.486;2022-09-12T13:13:16;7.22;;;2.60;;
63836;SDS011;49991;50.518;30.486;2022-09-12T13:16:09;11.00;;;3.05;;
63836;SDS011;49991;50.518;30.486;2022-09-12T13:21:53;7.25;;;2.42;;
63836;SDS011;49991;50.518;30.486;2022-09-12T13:24:41;6.68;;;2.50;;
63836;SDS011;49991;50.518;30.486;2022-09-12T13:27:28;5.15;;;2.53;;
63836;SDS011;49991;50.518;30.486;2022-09-12T13:30:14;4.82;;;2.42;;
63836;SDS011;49991;50.518;30.486;2022-09-12T13:33:03;5.70;;;2.10;;
63836;SDS011;49991;50.518;30.486;2022-09-12T13:39:23;6.30;;;2.53;;
63836;SDS011;49991;50.518;30.486;2022-09-12T13:45:26;4.43;;;2.17;;
63836;SDS011;49991;50.518;30.486;2022-09-12T13:48:12;2.75;;;1.80;;
63836;SDS011;49991;50.518;30.486;2022-09-12T13:51:02;2.83;;;2.13;;
63836;SDS011;49991;50.518;30.486;2022-09-12T13:53:48;2.00;;;1.90;;
63836;SDS011;49991;50.518;30.486;2022-09-12T13:56:45;4.30;;;2.00;;
63836;SDS011;49991;50.518;30.486;2022-09-12T13:59:37;4.63;;;2.20;;
63836;SDS011;49991;50.518;30.486;2022-09-12T14:02:25;3.40;;;1.95;;
63836;SDS011;49991;50.518;30.486;2022-09-12T14:05:12;4.68;;;2.20;;
63836;SDS011;49991;50.518;30.486;2022-09-12T14:08:03;2.35;;;2.15;;
63836;SDS011;49991;50.518;30.486;2022-09-12T14:10:52;6.57;;;2.15;;
63836;SDS011;49991;50.518;30.486;2022-09-12T14:13:37;2.10;;;2.00;;
63836;SDS011;49991;50.518;30.486;2022-09-12T14:16:24;3.40;;;2.00;;
63836;SDS011;49991;50.518;30.486;2022-09-12T14:19:10;1.92;;;1.80;;
63836;SDS011;49991;50.518;30.486;2022-09-12T14:21:58;3.17;;;2.10;;
63836;SDS011;49991;50.518;30.486;2022-09-12T14:24:44;2.38;;;2.20;;
63836;SDS011;49991;50.518;30.486;2022-09-12T14:27:34;3.10;;;2.30;;
63836;SDS011;49991;50.518;30.486;2022-09-12T14:30:26;2.63;;;2.30;;
63836;SDS011;49991;50.518;30.486;2022-09-12T14:33:18;3.53;;;2.88;;
63836;SDS011;49991;50.518;30.486;2022-09-12T14:36:08;5.55;;;4.53;;
63836;SDS011;49991;50.518;30.486;2022-09-12T14:38:56;4.40;;;4.00;;
63836;SDS011;49991;50.518;30.486;2022-09-12T14:41:46;4.50;;;3.88;;
63836;SDS011;49991;50.518;30.486;2022-09-12T14:44:33;3.80;;;3.50;;
63836;SDS011;49991;50.518;30.486;2022-09-12T14:47:21;4.93;;;3.33;;
63836;SDS011;49991;50.518;30.486;2022-09-12T14:50:14;4.00;;;3.53;;
63836;SDS011;49991;50.518;30.486;2022-09-12T14:53:01;3.70;;;3.40;;
63836;SDS011;49991;50.518;30.486;2022-09-12T14:55:49;3.47;;;3.17;;
63836;SDS011;49991;50.518;30.486;2022-09-12T14:58:37;3.20;;;3.00;;
63836;SDS011;49991;50.518;30.486;2022-09-12T15:01:23;3.47;;;3.15;;
63836;SDS011;49991;50.518;30.486;2022-09-12T15:04:09;3.05;;;2.85;;
63836;SDS011;49991;50.518;30.486;2022-09-12T15:06:56;3.38;;;3.08;;
63836;SDS011;49991;50.518;30.486;2022-09-12T15:09:41;3.20;;;2.90;;
63836;SDS011;49991;50.518;30.486;2022-09-12T15:12:27;3.22;;;2.90;;
63836;SDS011;49991;50.518;30.486;2022-09-12T15:15:14;3.10;;;2.80;;
63836;SDS011;49991;50.518;30.486;2022-09-12T15:18:00;3.53;;;3.00;;
63836;SDS011;49991;50.518;30.486;2022-09-12T15:20:46;4.78;;;2.60;;
63836;SDS011;49991;50.518;30.486;2022-09-12T15:23:35;3.13;;;2.65;;
63836;SDS011;49991;50.518;30.486;2022-09-12T15:26:26;3.20;;;2.90;;
63836;SDS011;49991;50.518;30.486;2022-09-12T15:29:14;3.33;;;2.58;;
63836;SDS011;49991;50.518;30.486;2022-09-12T15:32:00;3.13;;;2.37;;
63836;SDS011;49991;50.518;30.486;2022-09-12T15:34:45;5.15;;;2.75;;
63836;SDS011;49991;50.518;30.486;2022-09-12T15:37:31;3.90;;;2.73;;
63836;SDS011;49991;50.518;30.486;2022-09-12T15:40:17;3.17;;;2.55;;
63836;SDS011;49991;50.518;30.486;2022-09-12T15:43:03;2.83;;;2.55;;
63836;SDS011;49991;50.518;30.486;2022-09-12T15:45:49;2.90;;;2.70;;
63836;SDS011;49991;50.518;30.486;2022-09-12T15:48:35;2.58;;;2.33;;
63836;SDS011;49991;50.518;30.486;2022-09-12T15:51:20;3.28;;;2.90;;
63836;SDS011;49991;50.518;30.486;2022-09-12T15:54:08;2.97;;;2.78;;
63836;SDS011;49991;50.518;30.486;2022-09-12T15:56:59;4.63;;;3.08;;
63836;SDS011;49991;50.518;30.486;2022-09-12T15:59:44;2.92;;;2.72;;
63836;SDS011;49991;50.518;30.486;2022-09-12T16:02:29;2.85;;;2.65;;
63836;SDS011;49991;50.518;30.486;2022-09-12T16:05:16;3.20;;;2.90;;
63836;SDS011;49991;50.518;30.486;2022-09-12T16:08:03;2.97;;;2.78;;
63836;SDS011;49991;50.518;30.486;2022-09-12T16:10:52;4.13;;;2.58;;
63836;SDS011;49991;50.518;30.486;2022-09-12T16:13:40;3.08;;;2.78;;
63836;SDS011;49991;50.518;30.486;2022-09-12T16:16:26;4.03;;;2.85;;
63836;SDS011;49991;50.518;30.486;2022-09-12T16:19:11;3.43;;;2.97;;
63836;SDS011;49991;50.518;30.486;2022-09-12T16:21:56;3.60;;;3.30;;
63836;SDS011;49991;50.518;30.486;2022-09-12T16:24:42;3.28;;;2.90;;
63836;SDS011;49991;50.518;30.486;2022-09-12T16:27:27;3.75;;;3.08;;
63836;SDS011;49991;50.518;30.486;2022-09-12T16:30:14;3.42;;;3.13;;
63836;SDS011;49991;50.518;30.486;2022-09-12T16:32:59;3.47;;;2.78;;
63836;SDS011;49991;50.518;30.486;2022-09-12T16:35:45;3.30;;;3.00;;
63836;SDS011;49991;50.518;30.486;2022-09-12T16:38:31;11.13;;;3.08;;
63836;SDS011;49991;50.518;30.486;2022-09-12T16:44:03;3.50;;;3.20;;
63836;SDS011;49991;50.518;30.486;2022-09-12T16:46:49;3.35;;;3.05;;
63836;SDS011;49991;50.518;30.486;2022-09-12T16:49:35;4.03;;;3.25;;
63836;SDS011;49991;50.518;30.486;2022-09-12T16:52:20;5.05;;;3.80;;
63836;SDS011;49991;50.518;30.486;2022-09-12T16:55:06;4.22;;;3.83;;
63836;SDS011;49991;50.518;30.486;2022-09-12T16:57:52;5.32;;;4.05;;
63836;SDS011;49991;50.518;30.486;2022-09-12T17:00:38;5.00;;;3.70;;
63836;SDS011;49991;50.518;30.486;2022-09-12T17:03:24;5.25;;;3.83;;
63836;SDS011;49991;50.518;30.486;2022-09-12T17:06:11;4.22;;;3.80;;
63836;SDS011;49991;50.518;30.486;2022-09-12T17:08:59;8.77;;;4.75;;
63836;SDS011;49991;50.518;30.486;2022-09-12T17:11:46;6.80;;;5.78;;